11R weather

Brenham Municipal Airport
Brenham, Texas, United States

Public forecast

Using degrees Fahrenheit for public forecast. Weather courtesy of forecast.io.

Current aviation weather report (METAR) for Brenham Municipal Airport

Retrieved 2019/12/12 08:35 UTC (0 seconds ago):

K11R 120835Z AUTO 00000KT 10SM CLR 02/01 A3038 RMK AO2 T00240014

Closest aviation forecast (TAF) to Brenham Municipal Airport

Closest forecast is Easterwood Field, 22.2 nm (41.1 km) N. Retrieved 2019/12/12 06:27 UTC (2 hours ago):

TAF KCLL 120520Z 1206/1306 07005KT P6SM SKC FM121100 09003KT P6SM SCT035 BKN250 FM121200 09004KT P6SM BKN025 BKN250 FM121600 13006KT P6SM SCT030 BKN250 FM122000 17006KT P6SM SCT020 SCT070